Time;durP1;ratioP1;P1;durP2;ratioP2;P2;SDS_P1;SDS_P2;PMS_P1;PMS_P2;Temp;Humidity;BMP_temperature;BMP_pressure;BME280_temperature;BME280_humidity;BME280_pressure;Samples;Min_cycle;Max_cycle;Signal;HPM_P1;HPM_P2
2023/07/26 00:01:08;;;;;;;3.05;2.15;;;;;;;;;;5020423;28;20475;-63
2023/07/26 00:03:35;;;;;;;3.20;2.35;;;;;;;;;;5021571;28;20420;-63
2023/07/26 00:06:02;;;;;;;3.50;2.30;;;;;;;;;;5032416;28;20465;-63
2023/07/26 00:08:29;;;;;;;5.13;2.50;;;;;;;;;;5024171;28;20886;-63
2023/07/26 00:10:57;;;;;;;4.47;2.30;;;;;;;;;;5021872;28;20476;-63
2023/07/26 00:13:23;;;;;;;4.20;2.40;;;;;;;;;;5020707;28;20466;-63
2023/07/26 00:15:50;;;;;;;4.10;2.42;;;;;;;;;;5019375;28;20409;-63
2023/07/26 00:18:17;;;;;;;3.43;2.40;;;;;;;;;;5022480;28;20427;-63
2023/07/26 00:20:44;;;;;;;5.38;2.70;;;;;;;;;;5019340;28;20964;-63
2023/07/26 00:23:11;;;;;;;3.63;2.30;;;;;;;;;;5020393;28;20485;-63
2023/07/26 00:25:38;;;;;;;5.00;2.50;;;;;;;;;;5021198;28;20419;-63
2023/07/26 00:28:06;;;;;;;5.53;2.17;;;;;;;;;;5024791;28;20859;-63
2023/07/26 00:30:33;;;;;;;9.00;2.63;;;;;;;;;;5020984;28;20419;-63
2023/07/26 00:33:01;;;;;;;3.55;2.25;;;;;;;;;;5021350;28;20977;-63
2023/07/26 00:35:28;;;;;;;3.42;2.17;;;;;;;;;;5020729;28;20420;-62
2023/07/26 00:37:55;;;;;;;3.85;2.55;;;;;;;;;;5024617;28;20454;-63
2023/07/26 00:40:22;;;;;;;5.35;2.20;;;;;;;;;;5019000;28;20443;-63
2023/07/26 00:42:49;;;;;;;5.65;2.40;;;;;;;;;;5020648;28;20887;-63
2023/07/26 00:45:18;;;;;;;5.57;2.63;;;;;;;;;;5019202;28;20498;-63
2023/07/26 00:47:45;;;;;;;4.65;2.60;;;;;;;;;;5014716;28;20450;-63
2023/07/26 00:50:12;;;;;;;5.32;2.33;;;;;;;;;;5014507;28;20425;-63
2023/07/26 00:52:40;;;;;;;4.18;2.40;;;;;;;;;;5015149;28;20436;-63
2023/07/26 00:55:07;;;;;;;3.80;2.53;;;;;;;;;;5019161;28;20888;-63
2023/07/26 00:57:35;;;;;;;4.68;2.95;;;;;;;;;;5025269;28;20413;-63
2023/07/26 01:00:02;;;;;;;4.97;2.83;;;;;;;;;;5024639;28;20761;-63
2023/07/26 01:02:31;;;;;;;4.10;2.90;;;;;;;;;;5025223;28;20830;-63
2023/07/26 01:04:58;;;;;;;5.47;3.10;;;;;;;;;;5025791;28;20424;-62
2023/07/26 01:07:28;;;;;;;6.07;3.35;;;;;;;;;;5027829;28;20889;-62
2023/07/26 01:10:00;;;;;;;4.22;3.03;;;;;;;;;;5014962;28;20416;-62
2023/07/26 01:12:30;;;;;;;6.10;3.45;;;;;;;;;;5015324;28;20475;-68
2023/07/26 01:14:59;;;;;;;6.95;3.47;;;;;;;;;;5022524;28;20417;-62
2023/07/26 01:17:26;;;;;;;5.18;3.42;;;;;;;;;;5024887;28;20469;-63
2023/07/26 01:19:54;;;;;;;6.35;3.80;;;;;;;;;;5023659;28;20427;-63
2023/07/26 01:22:22;;;;;;;6.70;3.35;;;;;;;;;;5026565;28;20427;-63
2023/07/26 01:24:49;;;;;;;6.30;3.50;;;;;;;;;;5026181;28;20415;-63
2023/07/26 01:27:16;;;;;;;5.30;3.45;;;;;;;;;;5023883;28;20951;-63
2023/07/26 01:29:43;;;;;;;5.27;3.20;;;;;;;;;;5023267;28;20474;-62
2023/07/26 01:32:12;;;;;;;6.93;3.72;;;;;;;;;;5024471;28;20452;-63
2023/07/26 01:34:39;;;;;;;4.63;3.25;;;;;;;;;;5025855;28;20489;-62
2023/07/26 01:37:07;;;;;;;4.95;3.22;;;;;;;;;;5027278;28;20498;-63
2023/07/26 01:39:35;;;;;;;5.85;3.67;;;;;;;;;;5025053;28;20422;-63
2023/07/26 01:42:03;;;;;;;7.57;3.50;;;;;;;;;;5021857;28;20420;-63
2023/07/26 01:44:36;;;;;;;4.95;3.28;;;;;;;;;;5023404;28;20415;-63
2023/07/26 01:47:03;;;;;;;4.72;3.17;;;;;;;;;;5025610;28;20503;-63
2023/07/26 01:49:30;;;;;;;6.55;3.25;;;;;;;;;;5023239;28;20414;-63
2023/07/26 01:51:57;;;;;;;7.03;3.30;;;;;;;;;;5024041;28;20415;-63
2023/07/26 01:54:24;;;;;;;5.13;3.58;;;;;;;;;;5023622;28;20432;-62
2023/07/26 01:56:52;;;;;;;5.97;3.97;;;;;;;;;;5022020;28;20412;-63
2023/07/26 01:59:19;;;;;;;8.25;3.90;;;;;;;;;;5012395;28;20416;-63
2023/07/26 02:01:46;;;;;;;9.00;3.80;;;;;;;;;;5013268;28;20408;-63
2023/07/26 02:04:13;;;;;;;6.97;3.60;;;;;;;;;;5021458;28;20413;-63
2023/07/26 02:06:40;;;;;;;6.68;3.60;;;;;;;;;;5032944;28;20476;-63
2023/07/26 02:09:08;;;;;;;7.03;3.50;;;;;;;;;;5029175;28;20510;-63
2023/07/26 02:11:35;;;;;;;6.80;3.47;;;;;;;;;;5021960;28;20421;-63
2023/07/26 02:14:03;;;;;;;7.25;3.83;;;;;;;;;;5022309;28;20440;-63
2023/07/26 02:16:30;;;;;;;7.55;3.40;;;;;;;;;;5023848;28;20762;-63
2023/07/26 02:18:57;;;;;;;7.70;3.78;;;;;;;;;;5022783;28;20420;-63
2023/07/26 02:21:24;;;;;;;6.60;3.50;;;;;;;;;;5023651;28;20431;-62
2023/07/26 02:23:51;;;;;;;7.15;3.40;;;;;;;;;;5022540;28;20420;-63
2023/07/26 02:26:18;;;;;;;7.35;3.83;;;;;;;;;;5021793;28;20425;-63
2023/07/26 02:28:45;;;;;;;7.43;3.55;;;;;;;;;;5012601;28;20901;-62
2023/07/26 02:31:13;;;;;;;4.22;3.10;;;;;;;;;;5012627;28;20424;-63
2023/07/26 02:33:40;;;;;;;7.03;3.80;;;;;;;;;;5012669;28;20483;-63
2023/07/26 02:36:07;;;;;;;4.43;3.60;;;;;;;;;;5024182;28;20479;-63
2023/07/26 02:38:34;;;;;;;4.93;3.78;;;;;;;;;;5024967;28;20421;-63
2023/07/26 02:41:01;;;;;;;6.28;3.40;;;;;;;;;;5023358;28;20827;-63
2023/07/26 02:43:28;;;;;;;8.13;3.53;;;;;;;;;;5022717;28;20411;-63
2023/07/26 02:45:55;;;;;;;5.18;3.78;;;;;;;;;;5021044;28;20499;-63
2023/07/26 02:48:24;;;;;;;6.07;3.70;;;;;;;;;;5022099;28;20415;-63
2023/07/26 02:50:51;;;;;;;5.75;3.40;;;;;;;;;;5024436;28;20530;-62
2023/07/26 02:53:18;;;;;;;8.20;3.60;;;;;;;;;;5022611;28;20431;-62
2023/07/26 02:55:45;;;;;;;6.68;4.55;;;;;;;;;;5023246;28;20430;-62
2023/07/26 02:58:12;;;;;;;6.57;4.72;;;;;;;;;;5020551;28;20905;-62
2023/07/26 03:00:39;;;;;;;7.05;5.38;;;;;;;;;;5021763;28;20494;-63
2023/07/26 03:03:06;;;;;;;7.07;5.50;;;;;;;;;;5023259;28;20560;-63
2023/07/26 03:05:37;;;;;;;7.72;6.25;;;;;;;;;;5027859;28;20415;-63
2023/07/26 03:08:04;;;;;;;7.00;6.30;;;;;;;;;;5026137;28;20428;-63
2023/07/26 03:10:31;;;;;;;9.27;6.70;;;;;;;;;;5022319;28;20414;-63
2023/07/26 03:12:58;;;;;;;8.13;6.43;;;;;;;;;;5022805;28;20469;-63
2023/07/26 03:15:25;;;;;;;8.40;6.60;;;;;;;;;;5020480;28;20420;-64
2023/07/26 03:17:52;;;;;;;6.97;5.93;;;;;;;;;;5021732;28;20761;-64
2023/07/26 03:20:19;;;;;;;6.43;5.60;;;;;;;;;;5023522;28;20418;-63
2023/07/26 03:22:47;;;;;;;6.22;5.50;;;;;;;;;;5025057;28;20473;-62
2023/07/26 03:25:14;;;;;;;8.00;6.07;;;;;;;;;;5020077;28;21092;-63
2023/07/26 03:27:41;;;;;;;8.40;6.03;;;;;;;;;;5011730;28;20460;-63
2023/07/26 03:30:09;;;;;;;8.32;6.07;;;;;;;;;;5011148;28;20421;-63
2023/07/26 03:32:36;;;;;;;6.97;5.85;;;;;;;;;;5011327;28;20905;-63
2023/07/26 03:35:03;;;;;;;7.60;5.60;;;;;;;;;;5019827;28;20432;-63
2023/07/26 03:37:30;;;;;;;6.35;4.75;;;;;;;;;;5023245;28;20431;-62
2023/07/26 03:39:58;;;;;;;7.60;4.97;;;;;;;;;;5021685;28;20492;-63
2023/07/26 03:42:25;;;;;;;7.35;5.00;;;;;;;;;;5020526;28;20829;-63
2023/07/26 03:44:52;;;;;;;7.28;4.90;;;;;;;;;;5022775;28;20422;-63
2023/07/26 03:47:19;;;;;;;7.07;4.97;;;;;;;;;;5021466;28;20412;-63
2023/07/26 03:49:46;;;;;;;8.13;5.50;;;;;;;;;;5019710;28;20491;-63
2023/07/26 03:52:13;;;;;;;8.93;5.32;;;;;;;;;;5021095;28;20423;-63
2023/07/26 03:54:40;;;;;;;8.32;5.95;;;;;;;;;;5023920;28;20435;-63
2023/07/26 03:57:09;;;;;;;9.88;5.40;;;;;;;;;;5010760;28;20408;-63
2023/07/26 03:59:36;;;;;;;7.78;5.32;;;;;;;;;;5011177;28;20424;-63
2023/07/26 04:02:03;;;;;;;8.35;5.53;;;;;;;;;;5014269;28;20969;-63
2023/07/26 04:04:30;;;;;;;7.60;5.43;;;;;;;;;;5020606;28;20486;-63
2023/07/26 04:06:57;;;;;;;13.43;8.80;;;;;;;;;;5020835;28;20475;-62
2023/07/26 04:09:24;;;;;;;12.40;8.38;;;;;;;;;;5023748;28;20958;-63
2023/07/26 04:11:54;;;;;;;10.70;7.33;;;;;;;;;;5022746;28;20442;-63
2023/07/26 04:14:22;;;;;;;8.43;5.50;;;;;;;;;;5020563;28;20465;-63
2023/07/26 04:16:49;;;;;;;6.45;5.53;;;;;;;;;;5020562;28;20423;-63
2023/07/26 04:19:16;;;;;;;8.30;5.47;;;;;;;;;;5025412;28;20887;-64
2023/07/26 04:21:43;;;;;;;9.80;5.95;;;;;;;;;;5020296;28;20494;-63
2023/07/26 04:24:10;;;;;;;8.73;6.22;;;;;;;;;;5020243;28;20838;-65
2023/07/26 04:26:37;;;;;;;7.60;6.50;;;;;;;;;;5015923;28;20426;-63
2023/07/26 04:29:04;;;;;;;8.77;6.13;;;;;;;;;;5020632;28;20415;-64
2023/07/26 04:31:33;;;;;;;7.22;6.00;;;;;;;;;;5022538;28;20472;-65
2023/07/26 04:34:00;;;;;;;10.20;6.75;;;;;;;;;;5027127;28;20448;-65
2023/07/26 04:36:27;;;;;;;8.43;6.60;;;;;;;;;;5024001;28;20419;-64
2023/07/26 04:38:54;;;;;;;8.38;7.07;;;;;;;;;;5022820;28;20500;-65
2023/07/26 04:41:21;;;;;;;11.98;7.93;;;;;;;;;;5021370;28;20473;-64
2023/07/26 04:43:48;;;;;;;10.57;7.68;;;;;;;;;;5022985;28;20428;-63
2023/07/26 04:46:15;;;;;;;9.85;7.18;;;;;;;;;;5019750;28;20424;-63
2023/07/26 04:48:43;;;;;;;9.68;6.80;;;;;;;;;;5021738;28;20493;-64
2023/07/26 04:51:12;;;;;;;8.25;6.22;;;;;;;;;;5022686;28;20422;-64
2023/07/26 04:53:39;;;;;;;9.93;7.38;;;;;;;;;;5023633;28;20423;-63
2023/07/26 04:56:06;;;;;;;9.85;6.70;;;;;;;;;;5020551;28;20419;-63
2023/07/26 04:58:33;;;;;;;10.05;6.55;;;;;;;;;;5020916;28;20426;-63
2023/07/26 05:01:00;;;;;;;8.55;5.82;;;;;;;;;;5018769;28;20420;-63
2023/07/26 05:03:27;;;;;;;7.53;5.82;;;;;;;;;;5021208;28;20430;-63
2023/07/26 05:05:56;;;;;;;7.28;5.85;;;;;;;;;;5031148;28;20421;-63
2023/07/26 05:08:22;;;;;;;6.70;4.65;;;;;;;;;;5026584;28;20469;-63
2023/07/26 05:10:51;;;;;;;7.20;4.80;;;;;;;;;;5024411;28;20431;-62
2023/07/26 05:13:18;;;;;;;5.80;4.55;;;;;;;;;;5024164;28;20983;-63
2023/07/26 05:15:45;;;;;;;7.50;4.20;;;;;;;;;;5022425;28;20441;-63
2023/07/26 05:18:14;;;;;;;7.05;4.35;;;;;;;;;;5020279;28;20452;-63
2023/07/26 05:20:41;;;;;;;6.50;4.23;;;;;;;;;;5023679;28;20493;-63
2023/07/26 05:23:09;;;;;;;8.02;4.82;;;;;;;;;;5021208;28;20430;-63
2023/07/26 05:25:36;;;;;;;6.63;4.45;;;;;;;;;;5017398;28;20456;-63
2023/07/26 05:28:03;;;;;;;4.55;3.92;;;;;;;;;;5021197;28;20488;-63
2023/07/26 05:30:30;;;;;;;5.20;3.63;;;;;;;;;;5018497;28;20427;-63
2023/07/26 05:32:58;;;;;;;5.00;3.83;;;;;;;;;;5021429;28;20443;-62
2023/07/26 05:35:25;;;;;;;8.20;4.13;;;;;;;;;;5030541;28;20442;-63
2023/07/26 05:37:53;;;;;;;4.68;3.67;;;;;;;;;;5028726;28;20886;-63
2023/07/26 05:40:21;;;;;;;6.27;3.80;;;;;;;;;;5021756;28;20486;-62
2023/07/26 05:42:48;;;;;;;3.30;3.00;;;;;;;;;;5023622;28;20463;-63
2023/07/26 05:45:15;;;;;;;5.68;3.35;;;;;;;;;;5023999;28;20415;-63
2023/07/26 05:47:43;;;;;;;5.35;3.65;;;;;;;;;;5022540;28;20758;-63
2023/07/26 05:50:11;;;;;;;4.87;3.63;;;;;;;;;;5022291;28;20424;-63
2023/07/26 05:52:38;;;;;;;6.37;3.60;;;;;;;;;;5024346;28;20827;-62
2023/07/26 05:55:05;;;;;;;6.18;3.55;;;;;;;;;;5023178;28;20428;-63
2023/07/26 05:57:33;;;;;;;4.95;3.38;;;;;;;;;;5022160;28;20417;-63
2023/07/26 06:00:01;;;;;;;3.97;3.50;;;;;;;;;;5021079;28;20508;-63
2023/07/26 06:02:28;;;;;;;4.50;3.53;;;;;;;;;;5021854;28;20885;-63
2023/07/26 06:04:55;;;;;;;4.35;3.42;;;;;;;;;;5027249;28;20416;-62
2023/07/26 06:07:22;;;;;;;6.00;3.47;;;;;;;;;;5025044;28;20420;-63
2023/07/26 06:09:49;;;;;;;4.40;3.10;;;;;;;;;;5024135;28;20476;-63
2023/07/26 06:12:16;;;;;;;4.22;3.58;;;;;;;;;;5022396;28;20432;-63
2023/07/26 06:14:44;;;;;;;3.67;3.25;;;;;;;;;;5021823;28;20551;-63
2023/07/26 06:17:12;;;;;;;8.35;3.70;;;;;;;;;;5023009;28;20613;-63
2023/07/26 06:19:39;;;;;;;4.07;3.30;;;;;;;;;;5023729;28;20529;-63
2023/07/26 06:22:06;;;;;;;6.53;3.90;;;;;;;;;;5020970;28;20424;-63
2023/07/26 06:24:33;;;;;;;4.50;3.75;;;;;;;;;;5022477;28;20872;-62
2023/07/26 06:27:00;;;;;;;6.70;4.50;;;;;;;;;;5023696;28;20453;-63
2023/07/26 06:29:28;;;;;;;6.05;4.43;;;;;;;;;;5022096;28;20828;-63
2023/07/26 06:31:56;;;;;;;5.75;4.70;;;;;;;;;;5021130;28;20825;-63
2023/07/26 06:34:23;;;;;;;8.05;4.60;;;;;;;;;;5021513;28;20494;-62
2023/07/26 06:36:50;;;;;;;6.57;5.32;;;;;;;;;;5028825;28;20472;-63
2023/07/26 06:39:17;;;;;;;5.55;4.97;;;;;;;;;;5024385;28;20418;-62
2023/07/26 06:41:44;;;;;;;8.43;4.75;;;;;;;;;;5021288;28;20589;-63
2023/07/26 06:44:11;;;;;;;6.45;4.95;;;;;;;;;;5020450;28;20416;-63
2023/07/26 06:46:38;;;;;;;7.50;5.00;;;;;;;;;;5022713;28;20965;-63
2023/07/26 06:49:07;;;;;;;7.60;5.00;;;;;;;;;;5022915;28;20522;-63
2023/07/26 06:51:34;;;;;;;6.22;5.20;;;;;;;;;;5020430;28;20420;-63
2023/07/26 06:54:01;;;;;;;5.73;5.00;;;;;;;;;;5021689;28;20494;-63
2023/07/26 06:56:28;;;;;;;6.32;5.10;;;;;;;;;;5019616;28;20432;-63
2023/07/26 06:58:55;;;;;;;6.65;5.30;;;;;;;;;;5022333;28;20476;-63
2023/07/26 07:01:22;;;;;;;8.70;5.85;;;;;;;;;;5022736;28;20780;-63
2023/07/26 07:03:49;;;;;;;7.32;5.38;;;;;;;;;;5022888;28;20423;-64
2023/07/26 07:06:17;;;;;;;7.90;5.47;;;;;;;;;;5029270;28;20831;-64
2023/07/26 07:08:45;;;;;;;8.48;5.63;;;;;;;;;;5025107;28;20470;-64
2023/07/26 07:11:12;;;;;;;8.07;6.05;;;;;;;;;;5021933;28;20438;-63
2023/07/26 07:13:39;;;;;;;10.50;6.57;;;;;;;;;;5022826;28;20418;-64
2023/07/26 07:16:06;;;;;;;8.15;6.10;;;;;;;;;;5020522;28;20429;-64
2023/07/26 07:18:33;;;;;;;11.63;6.25;;;;;;;;;;5020789;28;20416;-64
2023/07/26 07:21:01;;;;;;;9.18;6.53;;;;;;;;;;5022614;28;20741;-64
2023/07/26 07:23:30;;;;;;;7.75;6.18;;;;;;;;;;5021684;28;20741;-63
2023/07/26 07:25:57;;;;;;;7.40;6.60;;;;;;;;;;5020756;28;20433;-63
2023/07/26 07:28:25;;;;;;;7.95;6.90;;;;;;;;;;5021557;28;20473;-63
2023/07/26 07:30:52;;;;;;;9.10;7.45;;;;;;;;;;5022630;28;20494;-63
2023/07/26 07:33:19;;;;;;;11.80;8.60;;;;;;;;;;5018720;28;20423;-64
2023/07/26 07:35:46;;;;;;;10.13;8.70;;;;;;;;;;5031342;28;20432;-63
2023/07/26 07:38:13;;;;;;;10.13;8.30;;;;;;;;;;5026162;28;20476;-64
2023/07/26 07:40:42;;;;;;;9.75;7.82;;;;;;;;;;5018892;28;20419;-64
2023/07/26 07:43:09;;;;;;;10.40;7.47;;;;;;;;;;5018933;28;20413;-63
2023/07/26 07:45:40;;;;;;;9.13;7.50;;;;;;;;;;5021212;28;20439;-64
2023/07/26 07:48:07;;;;;;;9.68;7.60;;;;;;;;;;5022013;28;20503;-64
2023/07/26 07:50:34;;;;;;;9.05;7.57;;;;;;;;;;5019811;28;20898;-64
2023/07/26 07:53:01;;;;;;;11.10;8.23;;;;;;;;;;5020113;28;20420;-64
2023/07/26 07:55:31;;;;;;;9.77;7.37;;;;;;;;;;5009812;28;20491;-65
2023/07/26 07:57:59;;;;;;;10.00;8.60;;;;;;;;;;5011126;28;20460;-64
2023/07/26 08:00:26;;;;;;;11.30;8.05;;;;;;;;;;5010644;28;20416;-64
2023/07/26 08:02:53;;;;;;;9.35;8.00;;;;;;;;;;5010793;28;20425;-65
2023/07/26 08:05:20;;;;;;;10.57;7.93;;;;;;;;;;5021976;28;20411;-64
2023/07/26 08:07:47;;;;;;;9.18;7.68;;;;;;;;;;5025331;28;20424;-64
2023/07/26 08:10:14;;;;;;;9.85;7.22;;;;;;;;;;5019277;28;20420;-64
2023/07/26 08:12:41;;;;;;;8.82;7.07;;;;;;;;;;5021632;28;20418;-64
2023/07/26 08:15:10;;;;;;;9.80;7.97;;;;;;;;;;5020433;28;20426;-64
2023/07/26 08:17:37;;;;;;;12.95;9.27;;;;;;;;;;5019065;28;20959;-64
2023/07/26 08:20:04;;;;;;;12.32;8.88;;;;;;;;;;5020619;28;20419;-64
2023/07/26 08:22:31;;;;;;;9.63;8.63;;;;;;;;;;5021629;28;20494;-64
2023/07/26 08:24:58;;;;;;;12.20;9.90;;;;;;;;;;5019410;28;20424;-64
2023/07/26 08:27:25;;;;;;;11.63;9.60;;;;;;;;;;5019816;28;20416;-64
2023/07/26 08:29:52;;;;;;;11.57;9.55;;;;;;;;;;5021201;28;20415;-64
2023/07/26 08:32:20;;;;;;;11.05;8.70;;;;;;;;;;5020394;28;20490;-64
2023/07/26 08:34:47;;;;;;;9.75;8.75;;;;;;;;;;5024257;28;20423;-64
2023/07/26 08:37:14;;;;;;;9.52;8.60;;;;;;;;;;5023039;28;20414;-64
2023/07/26 08:39:41;;;;;;;10.10;7.93;;;;;;;;;;5021395;28;20504;-64
2023/07/26 08:42:08;;;;;;;9.90;8.73;;;;;;;;;;5018509;28;20471;-64
2023/07/26 08:44:36;;;;;;;9.90;8.20;;;;;;;;;;5020370;28;20428;-64
2023/07/26 08:47:05;;;;;;;10.88;8.30;;;;;;;;;;5021474;28;20480;-64
2023/07/26 08:49:33;;;;;;;12.35;9.50;;;;;;;;;;5019896;28;20479;-64
2023/07/26 08:52:02;;;;;;;12.35;9.38;;;;;;;;;;5018642;28;20494;-64
2023/07/26 08:54:30;;;;;;;12.80;9.15;;;;;;;;;;5020783;28;20449;-64
2023/07/26 08:56:57;;;;;;;9.32;8.35;;;;;;;;;;5020979;28;20512;-64
2023/07/26 08:59:24;;;;;;;10.17;8.93;;;;;;;;;;5019267;28;20813;-64
2023/07/26 09:01:54;;;;;;;10.02;8.65;;;;;;;;;;5019438;28;20471;-64
2023/07/26 09:04:21;;;;;;;12.02;8.45;;;;;;;;;;5022578;28;20479;-64
2023/07/26 09:06:49;;;;;;;8.57;7.70;;;;;;;;;;5025021;28;20467;-64
2023/07/26 09:09:17;;;;;;;8.07;7.23;;;;;;;;;;5027999;28;20416;-64
2023/07/26 09:11:50;;;;;;;9.20;6.90;;;;;;;;;;5024910;28;20427;-64
2023/07/26 09:14:17;;;;;;;11.02;7.80;;;;;;;;;;5027675;28;20506;-64
2023/07/26 09:16:44;;;;;;;12.05;7.18;;;;;;;;;;5029781;28;20434;-64
2023/07/26 09:19:11;;;;;;;7.57;6.03;;;;;;;;;;5030472;28;20978;-64
2023/07/26 09:21:39;;;;;;;7.38;6.00;;;;;;;;;;5038844;28;20428;-63
2023/07/26 09:24:07;;;;;;;7.75;6.10;;;;;;;;;;5033834;28;20956;-64
2023/07/26 09:26:36;;;;;;;7.43;5.80;;;;;;;;;;5029013;28;20513;-64
2023/07/26 09:29:03;;;;;;;7.55;5.90;;;;;;;;;;5024457;28;20414;-64
2023/07/26 09:31:31;;;;;;;8.75;6.20;;;;;;;;;;5022208;28;20519;-64
2023/07/26 09:33:58;;;;;;;10.57;6.78;;;;;;;;;;5023365;28;20429;-63
2023/07/26 09:36:25;;;;;;;8.20;7.40;;;;;;;;;;5029948;28;20430;-64
2023/07/26 09:38:52;;;;;;;10.90;7.32;;;;;;;;;;5029174;28;20410;-63
2023/07/26 09:41:24;;;;;;;4.93;4.20;;;;;;;;;;5020565;28;20975;-64
2023/07/26 09:43:52;;;;;;;10.07;4.43;;;;;;;;;;5022466;28;20816;-63
2023/07/26 09:46:20;;;;;;;8.98;4.70;;;;;;;;;;5022259;28;20777;-64
2023/07/26 09:49:02;;;;;;;8.15;4.30;;;;;;;;;;5022024;28;20464;-64
2023/07/26 09:51:30;;;;;;;7.18;4.47;;;;;;;;;;5021816;28;20471;-64
2023/07/26 09:53:58;;;;;;;6.03;3.88;;;;;;;;;;5022652;28;20428;-65
2023/07/26 09:56:31;;;;;;;6.40;4.72;;;;;;;;;;5024340;28;20473;-63
2023/07/26 09:58:59;;;;;;;6.55;4.00;;;;;;;;;;5023752;28;20970;-63
2023/07/26 10:01:26;;;;;;;5.68;3.83;;;;;;;;;;5024146;28;20826;-65
2023/07/26 10:03:56;;;;;;;5.78;3.72;;;;;;;;;;5022907;28;20429;-64
2023/07/26 10:06:24;;;;;;;7.32;4.03;;;;;;;;;;5033790;28;20469;-64
2023/07/26 10:08:51;;;;;;;5.13;3.65;;;;;;;;;;5025686;28;20901;-64
2023/07/26 10:11:20;;;;;;;7.77;4.23;;;;;;;;;;5021171;28;20420;-64
2023/07/26 10:13:49;;;;;;;5.80;4.45;;;;;;;;;;5025394;28;20460;-65
2023/07/26 10:16:16;;;;;;;5.93;4.72;;;;;;;;;;5021432;28;20435;-63
2023/07/26 10:18:43;;;;;;;7.07;4.60;;;;;;;;;;5022700;28;20418;-64
2023/07/26 10:21:11;;;;;;;5.80;4.38;;;;;;;;;;5023285;28;20415;-65
2023/07/26 10:23:38;;;;;;;5.17;4.00;;;;;;;;;;5021082;28;20973;-65
2023/07/26 10:26:05;;;;;;;4.53;4.10;;;;;;;;;;5021744;28;20457;-65
2023/07/26 10:28:33;;;;;;;5.88;4.55;;;;;;;;;;5021318;28;20416;-64
2023/07/26 10:31:02;;;;;;;6.03;4.20;;;;;;;;;;5021364;28;20477;-65
2023/07/26 10:33:29;;;;;;;5.78;4.22;;;;;;;;;;5021205;28;20454;-65
2023/07/26 10:35:56;;;;;;;7.20;4.20;;;;;;;;;;5031280;28;20436;-65
2023/07/26 10:38:23;;;;;;;5.68;3.95;;;;;;;;;;5022876;28;20886;-65
2023/07/26 10:40:50;;;;;;;5.40;3.70;;;;;;;;;;5023446;28;20423;-65
2023/07/26 10:43:18;;;;;;;4.88;4.05;;;;;;;;;;5022323;28;20424;-65
2023/07/26 10:45:45;;;;;;;5.47;3.60;;;;;;;;;;5020826;28;20413;-65
2023/07/26 10:48:27;;;;;;;6.00;4.28;;;;;;;;;;5022723;28;20473;-65
2023/07/26 10:50:57;;;;;;;5.40;4.20;;;;;;;;;;5020990;28;20496;-65
2023/07/26 10:53:31;;;;;;;6.45;4.50;;;;;;;;;;5020950;28;20952;-65
2023/07/26 10:56:13;;;;;;;4.68;3.60;;;;;;;;;;5021660;28;20443;-63
2023/07/26 10:58:47;;;;;;;5.10;3.90;;;;;;;;;;5009897;28;20932;-62
2023/07/26 11:01:18;;;;;;;5.22;4.20;;;;;;;;;;5011487;28;20873;-62
2023/07/26 11:03:47;;;;;;;4.67;4.23;;;;;;;;;;5012173;28;20416;-62
2023/07/26 11:06:15;;;;;;;6.95;4.68;;;;;;;;;;5025865;28;20415;-62
2023/07/26 11:08:42;;;;;;;5.00;4.50;;;;;;;;;;5021832;28;20506;-63
2023/07/26 11:11:10;;;;;;;5.53;5.00;;;;;;;;;;5020106;28;20413;-63
2023/07/26 11:13:37;;;;;;;6.45;5.70;;;;;;;;;;5021654;28;20422;-62
2023/07/26 11:16:04;;;;;;;6.97;5.80;;;;;;;;;;5022304;28;20434;-62
2023/07/26 11:18:31;;;;;;;8.10;6.57;;;;;;;;;;5020749;28;20845;-63
2023/07/26 11:21:00;;;;;;;8.27;6.82;;;;;;;;;;5020107;28;20431;-62
2023/07/26 11:23:27;;;;;;;8.77;6.70;;;;;;;;;;5022710;28;20419;-62
2023/07/26 11:25:55;;;;;;;8.50;6.53;;;;;;;;;;5021351;28;20439;-63
2023/07/26 11:28:22;;;;;;;8.47;7.07;;;;;;;;;;5020017;28;20413;-62
2023/07/26 11:30:51;;;;;;;8.18;6.72;;;;;;;;;;5023855;28;20414;-62
2023/07/26 11:33:27;;;;;;;9.02;6.57;;;;;;;;;;5022426;28;20427;-62
2023/07/26 11:35:55;;;;;;;8.63;6.40;;;;;;;;;;5025743;28;20414;-62
2023/07/26 11:38:23;;;;;;;9.65;6.35;;;;;;;;;;5023264;28;20422;-63
2023/07/26 11:40:50;;;;;;;9.20;6.55;;;;;;;;;;5027111;28;20423;-63
2023/07/26 11:43:17;;;;;;;7.67;5.67;;;;;;;;;;5025973;28;20425;-64
2023/07/26 11:45:45;;;;;;;7.68;6.10;;;;;;;;;;5026228;28;20427;-62
2023/07/26 11:48:14;;;;;;;7.82;5.85;;;;;;;;;;5028564;28;20435;-62
2023/07/26 11:50:41;;;;;;;8.25;6.45;;;;;;;;;;5025144;28;20419;-64
2023/07/26 11:53:09;;;;;;;9.13;6.88;;;;;;;;;;5034830;28;20748;-65
2023/07/26 11:55:39;;;;;;;8.70;7.18;;;;;;;;;;5028053;28;20498;-65
2023/07/26 11:58:08;;;;;;;7.65;6.30;;;;;;;;;;5030187;28;20907;-65
2023/07/26 12:00:36;;;;;;;9.90;6.57;;;;;;;;;;5021729;28;20424;-65
2023/07/26 12:03:04;;;;;;;7.40;5.43;;;;;;;;;;5022454;28;20416;-65
2023/07/26 12:05:31;;;;;;;7.97;5.68;;;;;;;;;;5017625;28;20431;-65
2023/07/26 12:07:59;;;;;;;7.90;6.03;;;;;;;;;;5023416;28;20488;-66
2023/07/26 12:10:30;;;;;;;8.77;5.57;;;;;;;;;;5018472;28;20419;-65
2023/07/26 12:12:59;;;;;;;6.80;5.38;;;;;;;;;;5019487;28;20416;-65
2023/07/26 12:15:26;;;;;;;8.18;6.20;;;;;;;;;;5016346;28;20578;-64
2023/07/26 12:18:00;;;;;;;6.93;5.35;;;;;;;;;;5025794;28;20462;-64
2023/07/26 12:20:29;;;;;;;7.63;5.93;;;;;;;;;;5021792;28;20884;-64
2023/07/26 12:22:56;;;;;;;7.70;5.85;;;;;;;;;;5020230;28;20501;-64
2023/07/26 12:25:33;;;;;;;7.90;6.22;;;;;;;;;;5019875;28;20476;-66
2023/07/26 12:28:01;;;;;;;9.35;6.10;;;;;;;;;;5009074;28;20416;-64
2023/07/26 12:30:28;;;;;;;6.40;5.68;;;;;;;;;;5009003;28;20474;-64
2023/07/26 12:33:09;;;;;;;7.72;6.00;;;;;;;;;;5020575;28;20431;-66
2023/07/26 12:35:36;;;;;;;8.07;5.40;;;;;;;;;;5026361;28;20807;-64
2023/07/26 12:38:09;;;;;;;7.25;5.80;;;;;;;;;;5025801;28;20904;-64
2023/07/26 12:40:36;;;;;;;8.85;5.95;;;;;;;;;;5009261;28;20448;-64
2023/07/26 12:43:18;;;;;;;6.82;5.47;;;;;;;;;;5008967;28;20478;-63
2023/07/26 12:45:46;;;;;;;8.60;5.80;;;;;;;;;;5022853;28;20423;-64
2023/07/26 12:48:13;;;;;;;10.15;7.18;;;;;;;;;;5017657;28;20412;-63
2023/07/26 12:50:40;;;;;;;10.52;8.23;;;;;;;;;;5024938;28;20495;-65
2023/07/26 12:53:08;;;;;;;11.73;8.97;;;;;;;;;;5025336;28;20457;-64
2023/07/26 12:55:35;;;;;;;11.52;9.73;;;;;;;;;;5016815;28;20429;-64
2023/07/26 12:58:02;;;;;;;11.13;9.90;;;;;;;;;;5019465;28;20460;-64
2023/07/26 13:00:29;;;;;;;12.23;9.68;;;;;;;;;;5022598;28;20474;-64
2023/07/26 13:02:57;;;;;;;12.82;10.95;;;;;;;;;;5021895;28;20454;-65
2023/07/26 13:05:24;;;;;;;13.97;10.93;;;;;;;;;;5026201;28;20551;-64
2023/07/26 13:07:52;;;;;;;13.30;11.55;;;;;;;;;;5026564;28;20488;-64
2023/07/26 13:10:19;;;;;;;13.43;10.98;;;;;;;;;;5028143;28;20419;-65
2023/07/26 13:12:46;;;;;;;15.23;11.70;;;;;;;;;;5020305;28;20530;-66
2023/07/26 13:15:14;;;;;;;12.90;11.55;;;;;;;;;;5013288;28;20421;-66
2023/07/26 13:17:41;;;;;;;17.92;13.90;;;;;;;;;;5024038;28;20431;-65
2023/07/26 13:20:10;;;;;;;17.30;14.00;;;;;;;;;;5019371;28;20419;-63
2023/07/26 13:22:37;;;;;;;17.95;15.25;;;;;;;;;;5016140;28;20496;-62
2023/07/26 13:25:04;;;;;;;19.90;15.32;;;;;;;;;;5022709;28;20424;-63
2023/07/26 13:27:32;;;;;;;19.40;15.65;;;;;;;;;;5013799;28;20891;-64
2023/07/26 13:29:59;;;;;;;14.63;11.65;;;;;;;;;;5017979;28;20430;-64
2023/07/26 13:32:26;;;;;;;14.93;12.27;;;;;;;;;;5024038;28;20425;-64
2023/07/26 13:34:53;;;;;;;15.98;12.63;;;;;;;;;;5021579;28;20425;-64
2023/07/26 13:37:21;;;;;;;14.45;12.35;;;;;;;;;;5020244;28;20458;-64
2023/07/26 13:39:48;;;;;;;16.23;13.75;;;;;;;;;;5014012;28;20486;-64
2023/07/26 13:42:15;;;;;;;17.43;15.43;;;;;;;;;;5016657;28;20510;-64
2023/07/26 13:44:42;;;;;;;14.82;13.27;;;;;;;;;;5020161;28;20416;-64
2023/07/26 13:47:09;;;;;;;14.07;12.57;;;;;;;;;;5016157;28;20419;-64
2023/07/26 13:49:36;;;;;;;14.63;12.43;;;;;;;;;;5021980;28;20423;-64
2023/07/26 13:52:03;;;;;;;10.73;9.60;;;;;;;;;;5025648;28;20423;-64
2023/07/26 13:54:31;;;;;;;15.00;11.73;;;;;;;;;;5020790;28;20842;-64
2023/07/26 13:56:58;;;;;;;11.27;9.98;;;;;;;;;;5021837;28;20484;-64
2023/07/26 13:59:25;;;;;;;10.23;8.57;;;;;;;;;;5021430;28;20428;-64
2023/07/26 14:01:52;;;;;;;11.52;10.30;;;;;;;;;;5024812;28;20828;-65
2023/07/26 14:04:19;;;;;;;9.70;8.70;;;;;;;;;;5020614;28;20419;-64
2023/07/26 14:06:46;;;;;;;10.97;8.97;;;;;;;;;;5026512;28;20911;-64
2023/07/26 14:09:13;;;;;;;10.90;9.55;;;;;;;;;;5022799;28;20419;-64
2023/07/26 14:11:42;;;;;;;11.27;9.70;;;;;;;;;;5023571;28;20452;-64
2023/07/26 14:14:09;;;;;;;11.35;9.10;;;;;;;;;;5022220;28;20475;-64
2023/07/26 14:16:35;;;;;;;10.80;8.73;;;;;;;;;;5023246;28;20939;-63
2023/07/26 14:19:03;;;;;;;12.70;9.97;;;;;;;;;;5021424;28;20479;-64
2023/07/26 14:21:30;;;;;;;11.05;9.43;;;;;;;;;;5027204;28;20485;-64
2023/07/26 14:23:56;;;;;;;12.07;10.30;;;;;;;;;;5024354;28;20425;-64
2023/07/26 14:26:24;;;;;;;13.20;10.17;;;;;;;;;;5016123;28;20561;-63
2023/07/26 14:28:52;;;;;;;11.13;10.00;;;;;;;;;;5021221;28;20423;-63
2023/07/26 14:31:19;;;;;;;13.88;10.57;;;;;;;;;;5026847;28;20411;-64
2023/07/26 14:33:46;;;;;;;12.27;10.77;;;;;;;;;;5020969;28;20421;-62
2023/07/26 14:36:13;;;;;;;12.48;10.15;;;;;;;;;;5025144;28;20419;-63
2023/07/26 14:38:40;;;;;;;11.27;9.75;;;;;;;;;;5024042;28;20490;-63
2023/07/26 14:41:08;;;;;;;11.55;9.25;;;;;;;;;;5022453;28;20423;-63